Time;durP1;ratioP1;P1;durP2;ratioP2;P2;SDS_P1;SDS_P2;PMS_P1;PMS_P2;Temp;Humidity;BMP_temperature;BMP_pressure;BME280_temperature;BME280_humidity;BME280_pressure;Samples;Min_cycle;Max_cycle;Signal;HPM_P1;HPM_P2
2022/01/28 00:00:58;;;;;;;8.23;2.30;;;4.80;99.90;;;;;;2082327;28;20044;-71
2022/01/28 00:02:13;;;;;;;6.03;2.20;;;4.80;99.90;;;;;;2087737;28;20136;-70
2022/01/28 00:03:14;;;;;;;6.97;2.40;;;4.80;99.90;;;;;;2088345;28;20043;-70
2022/01/28 00:04:16;;;;;;;7.88;1.88;;;4.80;99.90;;;;;;2088571;28;20030;-70
2022/01/28 00:05:20;;;;;;;6.07;2.30;;;4.80;99.90;;;;;;2088158;28;20032;-70
2022/01/28 00:06:21;;;;;;;9.05;2.58;;;4.80;99.90;;;;;;2088252;28;20037;-69
2022/01/28 00:07:22;;;;;;;8.88;2.50;;;4.80;99.90;;;;;;2088096;28;20068;-69
2022/01/28 00:08:22;;;;;;;7.43;2.10;;;4.80;99.90;;;;;;2080215;28;20060;-70
2022/01/28 00:09:23;;;;;;;4.75;2.28;;;4.80;99.90;;;;;;2080574;28;20026;-70
2022/01/28 00:10:25;;;;;;;7.20;2.42;;;4.80;99.90;;;;;;2088776;28;20024;-70
2022/01/28 00:11:26;;;;;;;8.57;2.40;;;4.80;99.90;;;;;;2088690;28;20025;-71
2022/01/28 00:12:29;;;;;;;9.75;2.50;;;4.80;99.90;;;;;;2096248;28;20029;-69
2022/01/28 00:13:34;;;;;;;9.07;2.53;;;4.80;99.90;;;;;;2087664;28;20078;-70
2022/01/28 00:14:45;;;;;;;4.20;2.10;;;4.80;99.90;;;;;;2081447;28;20030;-70
2022/01/28 00:16:20;;;;;;;5.10;1.90;;;4.80;99.90;;;;;;2087460;28;20033;-70
2022/01/28 00:19:56;;;;;;;6.50;2.25;;;4.80;99.90;;;;;;2085643;28;20473;-70
2022/01/28 00:37:25;;;;;;;7.60;1.65;;;4.70;99.90;;;;;;2081299;28;20044;-68
2022/01/28 00:38:32;;;;;;;9.68;1.80;;;4.70;99.90;;;;;;2081139;28;20025;-69
2022/01/28 00:39:33;;;;;;;7.30;1.83;;;4.70;99.90;;;;;;2081254;28;20117;-70
2022/01/28 00:40:34;;;;;;;8.98;1.70;;;4.70;99.90;;;;;;2073645;28;20512;-68
2022/01/28 00:41:34;;;;;;;7.68;1.90;;;4.70;99.90;;;;;;2073540;28;20128;-68
2022/01/28 00:42:35;;;;;;;10.00;1.90;;;4.70;99.90;;;;;;2082167;28;20474;-68
2022/01/28 00:43:36;;;;;;;8.63;1.77;;;4.70;99.90;;;;;;2074862;28;20037;-69
2022/01/28 00:44:37;;;;;;;11.00;2.40;;;4.70;99.90;;;;;;2071710;28;20041;-67
2022/01/28 00:45:37;;;;;;;10.98;2.30;;;4.70;99.90;;;;;;2065239;28;20021;-70
2022/01/28 00:46:38;;;;;;;13.82;2.65;;;4.70;99.90;;;;;;2082162;28;20025;-69
2022/01/28 00:47:39;;;;;;;9.07;2.00;;;4.70;99.90;;;;;;2078222;28;20021;-70
2022/01/28 00:48:39;;;;;;;10.10;1.80;;;4.80;99.90;;;;;;2077035;28;20022;-69
2022/01/28 00:49:40;;;;;;;5.82;1.70;;;4.80;99.90;;;;;;2079929;28;20075;-69
2022/01/28 00:50:42;;;;;;;7.47;1.90;;;4.70;99.90;;;;;;2083188;28;20064;-71
2022/01/28 00:51:43;;;;;;;8.27;2.13;;;4.70;99.90;;;;;;2082149;28;20025;-69
2022/01/28 00:52:43;;;;;;;7.93;1.80;;;4.70;99.90;;;;;;2075005;28;20036;-69
2022/01/28 00:53:44;;;;;;;8.05;1.88;;;4.80;99.90;;;;;;2074030;28;20081;-69
2022/01/28 00:54:45;;;;;;;8.23;1.90;;;4.80;99.90;;;;;;2082159;28;20550;-71
2022/01/28 00:55:45;;;;;;;9.68;1.90;;;4.70;99.90;;;;;;2082218;28;20037;-69
2022/01/28 00:56:47;;;;;;;8.25;1.90;;;4.70;99.90;;;;;;2071873;28;20034;-70
2022/01/28 00:57:47;;;;;;;9.35;2.08;;;4.70;99.90;;;;;;2074867;28;20045;-71
2022/01/28 00:58:48;;;;;;;8.23;1.80;;;4.70;99.90;;;;;;2081139;28;20042;-71
2022/01/28 00:59:50;;;;;;;9.63;2.03;;;4.70;99.90;;;;;;2080574;28;20055;-73
2022/01/28 01:00:51;;;;;;;8.75;1.92;;;4.70;99.90;;;;;;2083230;28;20028;-72
2022/01/28 01:01:52;;;;;;;8.60;2.22;;;4.70;99.90;;;;;;2081495;28;20029;-71
2022/01/28 01:02:53;;;;;;;7.28;1.77;;;4.70;99.90;;;;;;2082214;28;20079;-71
2022/01/28 01:03:54;;;;;;;8.93;1.95;;;4.70;99.90;;;;;;2082481;28;20031;-72
2022/01/28 01:04:54;;;;;;;6.72;1.98;;;4.70;99.90;;;;;;2081490;28;20037;-72
2022/01/28 01:05:55;;;;;;;9.15;1.98;;;4.70;99.90;;;;;;2073010;28;20022;-72
2022/01/28 01:06:56;;;;;;;9.07;1.80;;;4.80;99.90;;;;;;2081915;28;20025;-70
2022/01/28 01:07:57;;;;;;;7.25;1.98;;;4.80;99.90;;;;;;2081280;28;20469;-72
2022/01/28 01:08:58;;;;;;;12.45;2.55;;;4.80;99.90;;;;;;2073835;28;20030;-70
2022/01/28 01:09:59;;;;;;;7.65;1.70;;;4.70;99.90;;;;;;2083325;28;20037;-69
2022/01/28 01:10:59;;;;;;;8.70;2.03;;;4.80;99.90;;;;;;2080540;28;20039;-72
2022/01/28 01:12:00;;;;;;;6.53;1.70;;;4.80;99.90;;;;;;2080723;28;20034;-70
2022/01/28 01:13:01;;;;;;;10.23;2.33;;;4.70;99.90;;;;;;2074910;28;20038;-70
2022/01/28 01:14:02;;;;;;;7.38;1.90;;;4.70;99.90;;;;;;2073159;28;20104;-71
2022/01/28 01:15:04;;;;;;;8.98;2.10;;;4.70;99.90;;;;;;2074985;28;20022;-71
2022/01/28 01:16:06;;;;;;;8.50;2.15;;;4.70;99.90;;;;;;2082378;28;20018;-69
2022/01/28 01:18:22;;;;;;;10.82;2.47;;;4.80;99.90;;;;;;2081760;28;20049;-71
2022/01/28 01:19:26;;;;;;;7.82;2.05;;;4.70;99.90;;;;;;2082575;28;20033;-70
2022/01/28 01:21:30;;;;;;;7.22;2.13;;;4.70;99.90;;;;;;2081350;28;20022;-72
2022/01/28 01:22:37;;;;;;;9.25;2.00;;;4.70;99.90;;;;;;2082599;28;20091;-71
2022/01/28 01:23:49;;;;;;;6.50;1.92;;;4.70;99.90;;;;;;2074894;28;20093;-71
2022/01/28 01:24:51;;;;;;;8.60;2.00;;;4.70;99.90;;;;;;2081671;28;20021;-71
2022/01/28 01:26:05;;;;;;;8.10;2.03;;;4.70;99.90;;;;;;2079133;28;20095;-70
2022/01/28 01:27:06;;;;;;;7.80;1.92;;;4.70;99.90;;;;;;2073917;28;20032;-71
2022/01/28 01:28:07;;;;;;;9.05;2.08;;;4.80;99.90;;;;;;2082998;28;20030;-70
2022/01/28 01:29:11;;;;;;;12.73;2.40;;;4.80;99.90;;;;;;2080867;28;20492;-70
2022/01/28 01:30:14;;;;;;;8.43;2.15;;;4.70;99.90;;;;;;2080804;28;20033;-72
2022/01/28 01:31:18;;;;;;;9.10;2.10;;;4.70;99.90;;;;;;2082832;28;20051;-70
2022/01/28 01:32:19;;;;;;;9.60;2.20;;;4.70;99.90;;;;;;2081524;28;20090;-71
2022/01/28 01:33:21;;;;;;;13.45;2.50;;;4.70;99.90;;;;;;2080102;28;20022;-71
2022/01/28 01:34:23;;;;;;;9.32;2.35;;;4.70;99.90;;;;;;2082366;28;21603;-71
2022/01/28 01:35:24;;;;;;;11.23;2.33;;;4.70;99.90;;;;;;2072624;28;20478;-71
2022/01/28 01:36:24;;;;;;;8.55;2.45;;;4.70;99.90;;;;;;2075769;28;20033;-70
2022/01/28 01:37:25;;;;;;;11.02;2.17;;;4.70;99.90;;;;;;2077532;28;20034;-70
2022/01/28 01:38:30;;;;;;;8.45;2.08;;;4.70;99.90;;;;;;2073716;28;20049;-68
2022/01/28 01:39:35;;;;;;;8.55;2.10;;;4.70;99.90;;;;;;2078807;28;20070;-70
2022/01/28 01:40:52;;;;;;;8.98;2.13;;;4.70;99.90;;;;;;2073267;28;20049;-71
2022/01/28 01:44:47;;;;;;;13.75;2.80;;;4.70;99.90;;;;;;2079659;28;20190;-70
2022/01/28 01:52:01;;;;;;;10.93;2.20;;;4.70;99.90;;;;;;2081079;28;20105;-71
2022/01/28 01:52:30;;;;;;;10.15;2.08;;;4.70;99.90;;;;;;2081714;28;20029;-71
2022/01/28 01:53:30;;;;;;;10.75;2.40;;;4.70;99.90;;;;;;2081277;28;20552;-71
2022/01/28 01:54:37;;;;;;;9.13;2.30;;;4.70;99.90;;;;;;2081952;28;20040;-71
2022/01/28 01:55:38;;;;;;;12.18;3.03;;;4.70;99.90;;;;;;2081615;28;20029;-71
2022/01/28 01:56:40;;;;;;;12.60;2.88;;;4.70;99.90;;;;;;2081069;28;20048;-72
2022/01/28 01:57:42;;;;;;;15.45;2.80;;;4.70;99.90;;;;;;2074142;28;20045;-71
2022/01/28 01:58:43;;;;;;;9.45;2.30;;;4.70;99.90;;;;;;2078829;28;20037;-72
2022/01/28 01:59:44;;;;;;;9.55;2.10;;;4.70;99.90;;;;;;2081463;28;20025;-71
2022/01/28 02:00:45;;;;;;;9.40;2.35;;;4.70;99.90;;;;;;2074626;28;20034;-71
2022/01/28 02:01:46;;;;;;;14.38;3.00;;;4.70;99.90;;;;;;2072834;28;20073;-71
2022/01/28 02:02:52;;;;;;;11.80;2.50;;;4.70;99.90;;;;;;2080627;28;20152;-72
2022/01/28 02:03:53;;;;;;;13.52;2.70;;;4.70;99.90;;;;;;2083267;28;20052;-71
2022/01/28 02:04:53;;;;;;;11.15;2.53;;;4.70;99.90;;;;;;2081527;28;20670;-71
2022/01/28 02:05:59;;;;;;;14.40;2.85;;;4.70;99.90;;;;;;2081537;28;20037;-69
2022/01/28 02:07:00;;;;;;;11.25;2.50;;;4.70;99.90;;;;;;2082322;28;20033;-71
2022/01/28 02:08:06;;;;;;;10.52;2.33;;;4.70;99.90;;;;;;2080970;28;20038;-71
2022/01/28 02:09:08;;;;;;;12.77;2.53;;;4.70;99.90;;;;;;2081569;28;20034;-70
2022/01/28 02:10:09;;;;;;;13.70;2.70;;;4.70;99.90;;;;;;2081805;28;20033;-71
2022/01/28 02:11:10;;;;;;;10.60;2.40;;;4.70;99.90;;;;;;2081480;28;20025;-71
2022/01/28 02:12:10;;;;;;;9.32;2.17;;;4.70;99.90;;;;;;2083297;28;20116;-70
2022/01/28 02:13:11;;;;;;;10.60;2.33;;;4.70;99.90;;;;;;2084223;28;20037;-71
2022/01/28 02:14:12;;;;;;;11.73;2.28;;;4.70;99.90;;;;;;2082451;28;20053;-70
2022/01/28 02:15:14;;;;;;;12.60;2.85;;;4.70;99.90;;;;;;2083231;28;20033;-71
2022/01/28 02:16:15;;;;;;;10.27;2.47;;;4.80;99.90;;;;;;2084396;28;20059;-71
2022/01/28 02:17:16;;;;;;;12.48;2.80;;;4.70;99.90;;;;;;2084096;28;20076;-70
2022/01/28 02:18:17;;;;;;;10.63;2.30;;;4.70;99.90;;;;;;2082292;28;20117;-71
2022/01/28 02:19:18;;;;;;;14.95;2.88;;;4.70;99.90;;;;;;2084855;28;20112;-71
2022/01/28 02:20:29;;;;;;;10.75;2.50;;;4.70;99.90;;;;;;2083949;28;20040;-72
2022/01/28 02:21:43;;;;;;;14.93;2.42;;;4.70;99.90;;;;;;2084189;28;20017;-72
2022/01/28 02:22:44;;;;;;;8.40;2.15;;;4.70;99.90;;;;;;2082021;28;20021;-70
2022/01/28 02:23:50;;;;;;;13.23;2.00;;;4.70;99.90;;;;;;2081724;28;20025;-70
2022/01/28 02:24:50;;;;;;;11.50;2.70;;;4.70;99.90;;;;;;2082758;28;20022;-69
2022/01/28 02:25:51;;;;;;;9.80;2.35;;;4.70;99.90;;;;;;2080492;28;20342;-69
2022/01/28 02:26:52;;;;;;;13.05;2.40;;;4.60;99.90;;;;;;2081738;28;20026;-69
2022/01/28 02:27:55;;;;;;;12.95;2.47;;;4.60;99.90;;;;;;2082642;28;20719;-69
2022/01/28 02:28:57;;;;;;;9.13;2.20;;;4.60;99.90;;;;;;2073038;28;20026;-70
2022/01/28 02:29:58;;;;;;;12.40;2.65;;;4.60;99.90;;;;;;2079566;28;20030;-70
2022/01/28 02:31:02;;;;;;;10.25;2.30;;;4.60;99.90;;;;;;2073896;28;20101;-70
2022/01/28 02:32:08;;;;;;;12.63;2.53;;;4.50;99.90;;;;;;2072651;28;20076;-70
2022/01/28 02:33:12;;;;;;;9.13;2.13;;;4.50;99.90;;;;;;2080960;28;20025;-70
2022/01/28 02:34:13;;;;;;;12.73;2.53;;;4.50;99.90;;;;;;2082133;28;20200;-70
2022/01/28 02:35:17;;;;;;;8.80;2.17;;;4.50;99.90;;;;;;2080767;28;20045;-70
2022/01/28 02:36:18;;;;;;;10.15;2.25;;;4.50;99.90;;;;;;2072687;28;20068;-70
2022/01/28 02:37:19;;;;;;;12.65;2.22;;;4.50;99.90;;;;;;2073590;28;20120;-71
2022/01/28 02:38:22;;;;;;;11.43;2.88;;;4.50;99.90;;;;;;2079014;28;20041;-69
2022/01/28 02:39:23;;;;;;;12.18;3.10;;;4.50;99.90;;;;;;2081302;28;20029;-70
2022/01/28 02:40:25;;;;;;;9.80;2.17;;;4.50;99.90;;;;;;2082168;28;20049;-69
2022/01/28 02:41:30;;;;;;;8.77;2.10;;;4.50;99.90;;;;;;2080694;28;20045;-69
2022/01/28 02:43:18;;;;;;;12.80;2.75;;;4.50;99.90;;;;;;2081293;28;20101;-69
2022/01/28 02:45:02;;;;;;;9.50;2.10;;;4.50;99.90;;;;;;2080181;28;20029;-69
2022/01/28 02:46:08;;;;;;;11.68;2.53;;;4.50;99.90;;;;;;2065633;28;20069;-70
2022/01/28 02:47:13;;;;;;;11.52;2.22;;;4.50;99.90;;;;;;2073893;28;20021;-70
2022/01/28 02:48:21;;;;;;;12.70;2.40;;;4.50;99.90;;;;;;2080052;28;20034;-68
2022/01/28 02:49:25;;;;;;;11.50;2.15;;;4.50;99.90;;;;;;2082211;28;20503;-68
2022/01/28 02:50:29;;;;;;;8.70;2.30;;;4.50;99.90;;;;;;2080856;28;20025;-68
2022/01/28 02:51:30;;;;;;;9.02;1.98;;;4.40;99.90;;;;;;2077190;28;20044;-69
2022/01/28 02:52:38;;;;;;;7.78;2.22;;;4.40;99.90;;;;;;2080939;28;20036;-69
2022/01/28 02:53:42;;;;;;;9.05;2.00;;;4.50;99.90;;;;;;2082157;28;20074;-68
2022/01/28 02:54:47;;;;;;;9.82;2.40;;;4.50;99.90;;;;;;2083479;28;20024;-69
2022/01/28 02:55:47;;;;;;;9.90;2.20;;;4.40;99.90;;;;;;2081848;28;20036;-69
2022/01/28 02:56:55;;;;;;;11.80;2.15;;;4.40;99.90;;;;;;2082168;28;20063;-69
2022/01/28 02:58:13;;;;;;;9.57;1.90;;;4.50;99.90;;;;;;2082287;28;20029;-69
2022/01/28 02:59:14;;;;;;;10.85;2.38;;;4.50;99.90;;;;;;2074305;28;20034;-70
2022/01/28 03:00:15;;;;;;;15.32;2.40;;;4.50;99.90;;;;;;2080861;28;20084;-70
2022/01/28 03:01:20;;;;;;;10.57;2.30;;;4.50;99.90;;;;;;2082456;28;20033;-70
2022/01/28 03:02:21;;;;;;;9.90;2.08;;;4.50;99.90;;;;;;2072299;28;20037;-70
2022/01/28 03:03:23;;;;;;;12.85;2.33;;;4.50;99.90;;;;;;2072688;28;21565;-70
2022/01/28 03:05:44;;;;;;;10.85;2.10;;;4.50;99.90;;;;;;2081204;28;20032;-70
2022/01/28 03:06:45;;;;;;;9.80;2.00;;;4.50;99.90;;;;;;2080835;28;20385;-70
2022/01/28 03:07:46;;;;;;;5.93;1.83;;;4.50;99.90;;;;;;2081063;28;20488;-70
2022/01/28 03:08:56;;;;;;;12.57;2.67;;;4.50;99.90;;;;;;2073075;28;20030;-70
2022/01/28 03:12:00;;;;;;;11.90;2.40;;;4.50;99.90;;;;;;2072744;28;20022;-70
2022/01/28 03:12:33;;;;;;;10.93;2.10;;;4.40;99.90;;;;;;2080905;28;20026;-70
2022/01/28 03:14:33;;;;;;;9.77;2.42;;;4.40;99.90;;;;;;2081417;28;20556;-69
2022/01/28 03:15:02;;;;;;;10.05;2.25;;;4.40;99.90;;;;;;2076294;28;20069;-69
2022/01/28 03:16:09;;;;;;;11.07;2.10;;;4.40;99.90;;;;;;2075024;28;20436;-70
2022/01/28 03:17:17;;;;;;;7.68;2.17;;;4.40;99.90;;;;;;2081203;28;20038;-71
2022/01/28 03:18:22;;;;;;;9.98;2.13;;;4.40;99.90;;;;;;2079323;28;20025;-70
2022/01/28 03:19:27;;;;;;;9.25;2.30;;;4.40;99.90;;;;;;2081492;28;20088;-71
2022/01/28 03:20:38;;;;;;;11.80;2.33;;;4.40;99.90;;;;;;2066518;28;20089;-70
2022/01/28 03:21:45;;;;;;;11.43;2.15;;;4.40;99.90;;;;;;2067986;28;20041;-71
2022/01/28 03:22:47;;;;;;;7.95;1.80;;;4.40;99.90;;;;;;2080703;28;20457;-71
2022/01/28 03:23:48;;;;;;;14.32;2.38;;;4.40;99.90;;;;;;2080814;28;20026;-70
2022/01/28 03:24:52;;;;;;;11.27;2.13;;;4.40;99.90;;;;;;2080012;28;20034;-71
2022/01/28 03:25:54;;;;;;;10.70;2.08;;;4.40;99.90;;;;;;2072328;28;20052;-71
2022/01/28 03:27:02;;;;;;;10.48;2.45;;;4.40;99.90;;;;;;2072596;28;20629;-71
2022/01/28 03:28:03;;;;;;;12.10;2.25;;;4.40;99.90;;;;;;2081175;28;20060;-71
2022/01/28 03:29:05;;;;;;;12.18;2.50;;;4.40;99.90;;;;;;2080672;28;20064;-71
2022/01/28 03:30:06;;;;;;;11.30;2.25;;;4.30;99.90;;;;;;2080191;28;20501;-69
2022/01/28 03:31:07;;;;;;;11.27;2.30;;;4.30;99.90;;;;;;2081786;28;20030;-70
2022/01/28 03:32:08;;;;;;;11.05;2.42;;;4.30;99.90;;;;;;2071971;28;20536;-70
2022/01/28 03:33:09;;;;;;;7.00;2.22;;;4.30;99.90;;;;;;2072423;28;20425;-70
2022/01/28 03:34:09;;;;;;;10.88;2.40;;;4.30;99.90;;;;;;2081203;28;20029;-70
2022/01/28 03:35:13;;;;;;;8.77;2.30;;;4.30;99.90;;;;;;2081084;28;20033;-70
2022/01/28 03:36:14;;;;;;;10.13;2.50;;;4.30;99.90;;;;;;2080102;28;20499;-70
2022/01/28 03:37:15;;;;;;;8.88;2.17;;;4.30;99.90;;;;;;2073803;28;20065;-70
2022/01/28 03:38:16;;;;;;;10.40;2.47;;;4.30;99.90;;;;;;2076297;28;20500;-71
2022/01/28 03:39:18;;;;;;;8.38;2.38;;;4.30;99.90;;;;;;2081315;28;20428;-69
2022/01/28 03:40:20;;;;;;;11.25;2.42;;;4.30;99.90;;;;;;2081994;28;20029;-70
2022/01/28 03:41:23;;;;;;;9.18;2.15;;;4.40;99.90;;;;;;2080688;28;20358;-71
2022/01/28 03:42:24;;;;;;;6.38;2.00;;;4.30;99.90;;;;;;2080611;28;20450;-70
2022/01/28 03:43:25;;;;;;;11.23;2.50;;;4.40;99.90;;;;;;2081643;28;20041;-69
2022/01/28 03:44:25;;;;;;;10.98;2.20;;;4.40;99.90;;;;;;2080542;28;20026;-71
2022/01/28 03:45:27;;;;;;;10.20;2.28;;;4.40;99.90;;;;;;2072529;28;20026;-69
2022/01/28 03:46:29;;;;;;;11.85;2.55;;;4.40;99.90;;;;;;2076736;28;20400;-70
2022/01/28 03:47:30;;;;;;;12.88;2.47;;;4.40;99.90;;;;;;2080484;28;20026;-70
2022/01/28 03:48:31;;;;;;;9.80;2.10;;;4.40;99.90;;;;;;2081164;28;20374;-70
2022/01/28 03:49:31;;;;;;;12.77;2.45;;;4.40;99.90;;;;;;2082761;28;20048;-70
2022/01/28 03:50:34;;;;;;;16.38;2.88;;;4.40;99.90;;;;;;2081161;28;20029;-69
2022/01/28 03:51:35;;;;;;;10.80;2.28;;;4.50;99.90;;;;;;2082853;28;20040;-70
2022/01/28 03:52:36;;;;;;;12.35;2.63;;;4.50;99.90;;;;;;2080828;28;20026;-70
2022/01/28 03:53:37;;;;;;;9.90;2.42;;;4.50;99.90;;;;;;2082553;28;20026;-70
2022/01/28 03:54:38;;;;;;;11.05;2.40;;;4.50;99.90;;;;;;2083329;28;20052;-70
2022/01/28 03:55:39;;;;;;;17.10;2.50;;;4.50;99.90;;;;;;2081699;28;20026;-70
2022/01/28 03:56:40;;;;;;;11.95;2.30;;;4.50;99.90;;;;;;2081092;28;20034;-71
2022/01/28 03:57:41;;;;;;;10.30;2.40;;;4.50;99.90;;;;;;2082871;28;20037;-70
2022/01/28 03:58:42;;;;;;;15.15;2.67;;;4.50;99.90;;;;;;2073631;28;20029;-70
2022/01/28 03:59:43;;;;;;;14.63;2.70;;;4.50;99.90;;;;;;2081979;28;20034;-70
2022/01/28 04:00:44;;;;;;;15.68;2.38;;;4.60;99.90;;;;;;2082476;28;20029;-70
2022/01/28 04:01:48;;;;;;;13.05;2.30;;;4.60;99.90;;;;;;2082438;28;20022;-71
2022/01/28 04:02:50;;;;;;;12.55;2.65;;;4.60;99.90;;;;;;2081073;28;20469;-70
2022/01/28 04:12:22;;;;;;;11.15;2.33;;;4.60;99.90;;;;;;2075661;28;20040;-71
2022/01/28 04:13:26;;;;;;;12.02;2.67;;;4.60;99.90;;;;;;2075514;28;20140;-71
2022/01/28 04:14:46;;;;;;;11.80;2.85;;;4.60;99.90;;;;;;2072395;28;20033;-71
2022/01/28 04:15:53;;;;;;;15.63;2.92;;;4.70;99.90;;;;;;2080430;28;20112;-70
2022/01/28 04:18:07;;;;;;;13.35;2.42;;;4.60;99.90;;;;;;2074312;28;20088;-71
2022/01/28 04:19:08;;;;;;;9.32;2.63;;;4.60;99.90;;;;;;2083694;28;20064;-71
2022/01/28 04:20:09;;;;;;;14.95;3.03;;;4.60;99.90;;;;;;2080515;28;20034;-70
2022/01/28 04:21:10;;;;;;;14.15;2.80;;;4.60;99.90;;;;;;2081617;28;20033;-70
2022/01/28 04:22:11;;;;;;;12.40;2.78;;;4.60;99.90;;;;;;2074070;28;20060;-71
2022/01/28 04:23:11;;;;;;;12.10;2.85;;;4.60;99.90;;;;;;2066409;28;20034;-71
2022/01/28 04:24:13;;;;;;;15.50;2.80;;;4.60;99.90;;;;;;2080990;28;20032;-71
2022/01/28 04:25:13;;;;;;;13.95;2.60;;;4.60;99.90;;;;;;2083480;28;20053;-71
2022/01/28 04:26:14;;;;;;;12.95;2.85;;;4.60;99.90;;;;;;2080234;28;20635;-72
2022/01/28 04:27:15;;;;;;;12.90;2.70;;;4.70;99.90;;;;;;2081577;28;20101;-70
2022/01/28 04:28:16;;;;;;;14.38;2.92;;;4.70;99.90;;;;;;2074473;28;20036;-71
2022/01/28 04:29:17;;;;;;;13.88;3.17;;;4.70;99.90;;;;;;2075306;28;20096;-70
2022/01/28 04:30:18;;;;;;;15.82;2.65;;;4.70;99.90;;;;;;2081646;28;20047;-71
2022/01/28 04:31:18;;;;;;;15.40;3.08;;;4.70;99.90;;;;;;2082933;28;20029;-71
2022/01/28 04:32:20;;;;;;;17.55;2.90;;;4.70;99.90;;;;;;2079798;28;20793;-70
2022/01/28 04:33:21;;;;;;;12.85;2.60;;;4.70;99.90;;;;;;2082462;28;20034;-71
2022/01/28 04:34:23;;;;;;;16.48;3.08;;;4.60;99.90;;;;;;2083769;28;20415;-71
2022/01/28 04:35:24;;;;;;;16.50;2.67;;;4.60;99.90;;;;;;2080919;28;20025;-70
2022/01/28 04:36:27;;;;;;;13.55;2.60;;;4.60;99.90;;;;;;2081401;28;20029;-70
2022/01/28 04:38:59;;;;;;;;;;;4.60;99.90;;;;;;2081193;28;20079;-71
2022/01/28 04:43:39;;;;;;;16.90;2.90;;;4.50;99.90;;;;;;2081322;28;20026;-70
2022/01/28 04:46:06;;;;;;;12.93;2.63;;;4.50;99.90;;;;;;2081019;28;20037;-70
2022/01/28 04:47:16;;;;;;;13.77;2.53;;;4.50;99.90;;;;;;2081612;28;20108;-70
2022/01/28 04:49:30;;;;;;;11.85;2.60;;;4.50;99.90;;;;;;2080969;28;20029;-69
2022/01/28 04:52:37;;;;;;;13.02;2.70;;;4.50;99.90;;;;;;2081268;28;20040;-72
2022/01/28 04:53:36;;;;;;;11.98;2.42;;;4.50;99.90;;;;;;2081433;28;20036;-71
2022/01/28 04:57:08;;;;;;;9.00;2.30;;;4.40;99.90;;;;;;2081656;28;20029;-71
2022/01/28 05:00:26;;;;;;;12.98;3.00;;;4.50;99.90;;;;;;2081034;28;20037;-70
2022/01/28 05:02:06;;;;;;;12.40;2.70;;;4.50;99.90;;;;;;2080916;28;20453;-70
2022/01/28 05:04:07;;;;;;;15.07;2.83;;;4.50;99.90;;;;;;2081572;28;20488;-72
2022/01/28 05:05:49;;;;;;;13.57;3.00;;;4.40;99.90;;;;;;2080998;28;20112;-69
2022/01/28 05:07:14;;;;;;;15.40;2.70;;;4.30;99.90;;;;;;2081146;28;20163;-70
2022/01/28 05:14:47;;;;;;;17.75;2.75;;;4.00;99.90;;;;;;2082158;28;20118;-70
2022/01/28 05:23:18;;;;;;;13.25;2.85;;;4.00;99.90;;;;;;2082408;28;20622;-70
2022/01/28 05:25:47;;;;;;;16.67;2.97;;;4.00;99.90;;;;;;2081379;28;20507;-71
2022/01/28 05:26:58;;;;;;;16.58;2.60;;;4.00;99.90;;;;;;2080791;28;20034;-70
2022/01/28 05:27:59;;;;;;;14.15;3.40;;;4.10;99.90;;;;;;2081237;28;20044;-71
2022/01/28 05:29:00;;;;;;;14.80;3.25;;;4.10;99.90;;;;;;2081746;28;20029;-71
2022/01/28 05:30:00;;;;;;;17.58;3.03;;;4.10;99.90;;;;;;2080919;28;20068;-70
2022/01/28 05:31:01;;;;;;;15.05;3.20;;;4.10;99.90;;;;;;2080988;28;20053;-71
2022/01/28 05:32:03;;;;;;;18.55;3.00;;;4.10;99.90;;;;;;2081263;28;20041;-71
2022/01/28 05:33:03;;;;;;;12.48;2.95;;;4.10;99.90;;;;;;2072774;28;20440;-70
2022/01/28 05:34:04;;;;;;;15.15;3.10;;;4.10;99.90;;;;;;2072907;28;20048;-71
2022/01/28 05:35:05;;;;;;;16.27;3.25;;;4.20;99.90;;;;;;2081881;28;20477;-71
2022/01/28 05:36:06;;;;;;;12.15;2.55;;;4.20;99.90;;;;;;2081396;28;20064;-70
2022/01/28 05:37:07;;;;;;;13.95;3.00;;;4.20;99.90;;;;;;2080836;28;20347;-71
2022/01/28 05:38:08;;;;;;;20.55;2.95;;;4.20;99.90;;;;;;2072764;28;20164;-70
2022/01/28 05:39:08;;;;;;;16.85;3.20;;;4.20;99.90;;;;;;2072725;28;20060;-71
2022/01/28 05:40:09;;;;;;;14.23;3.08;;;4.20;99.90;;;;;;2080694;28;20567;-72
2022/01/28 05:41:10;;;;;;;18.83;3.30;;;4.20;99.90;;;;;;2080985;28;20044;-70
2022/01/28 05:42:10;;;;;;;17.15;2.85;;;4.20;99.90;;;;;;2080797;28;20060;-71
2022/01/28 05:43:11;;;;;;;12.90;3.03;;;4.20;99.90;;;;;;2081493;28;20112;-70
2022/01/28 05:44:12;;;;;;;15.50;3.30;;;4.20;99.90;;;;;;2081558;28;20089;-72
2022/01/28 05:45:12;;;;;;;16.60;3.20;;;4.20;99.90;;;;;;2080963;28;20116;-70
2022/01/28 05:46:13;;;;;;;16.45;3.10;;;4.20;99.90;;;;;;2080718;28;20067;-71
2022/01/28 05:47:16;;;;;;;16.73;3.22;;;4.20;99.90;;;;;;2081034;28;20113;-71
2022/01/28 05:48:19;;;;;;;15.98;2.88;;;4.20;99.90;;;;;;2081579;28;20465;-71
2022/01/28 05:49:20;;;;;;;15.50;3.05;;;4.20;99.90;;;;;;2081046;28;20037;-71
2022/01/28 05:50:21;;;;;;;14.32;2.90;;;4.20;99.90;;;;;;2081140;28;20033;-71
2022/01/28 05:51:22;;;;;;;15.02;3.10;;;4.20;99.90;;;;;;2081148;28;20028;-70
2022/01/28 05:52:22;;;;;;;15.93;3.33;;;4.20;99.90;;;;;;2080904;28;20079;-71
2022/01/28 05:53:23;;;;;;;14.73;3.17;;;4.20;99.90;;;;;;2081608;28;20668;-71
2022/01/28 05:54:23;;;;;;;17.65;3.80;;;4.20;99.90;;;;;;2081575;28;20077;-70
2022/01/28 05:55:24;;;;;;;16.55;3.28;;;4.20;99.90;;;;;;2080825;28;20025;-72
2022/01/28 05:56:26;;;;;;;17.85;3.38;;;4.20;99.90;;;;;;2081396;28;20065;-71
2022/01/28 05:57:27;;;;;;;15.00;3.30;;;4.20;99.90;;;;;;2072811;28;20055;-70
2022/01/28 05:58:27;;;;;;;16.17;3.38;;;4.20;99.90;;;;;;2073025;28;20026;-71
2022/01/28 05:59:28;;;;;;;16.88;3.55;;;4.20;99.90;;;;;;2080692;28;20519;-71
2022/01/28 06:00:29;;;;;;;19.48;3.45;;;4.10;99.90;;;;;;2080940;28;20030;-71
2022/01/28 06:01:29;;;;;;;16.90;3.50;;;4.20;99.90;;;;;;2080467;28;20038;-70
2022/01/28 06:02:30;;;;;;;17.23;3.17;;;4.10;99.90;;;;;;2080835;28;20080;-71
2022/01/28 06:03:30;;;;;;;20.92;3.50;;;4.10;99.90;;;;;;2072561;28;20111;-71
2022/01/28 06:04:31;;;;;;;15.15;2.92;;;4.10;99.90;;;;;;2072361;28;20066;-71
2022/01/28 06:05:32;;;;;;;20.00;3.50;;;4.10;99.90;;;;;;2080072;28;20056;-70
2022/01/28 06:06:33;;;;;;;17.10;3.70;;;4.10;99.90;;;;;;2080522;28;20059;-70
2022/01/28 06:07:34;;;;;;;21.23;3.55;;;4.10;99.90;;;;;;2080581;28;20048;-70
2022/01/28 06:08:35;;;;;;;16.52;3.42;;;4.10;99.90;;;;;;2080650;28;20484;-70
2022/01/28 06:09:36;;;;;;;19.70;3.72;;;4.20;99.90;;;;;;2081050;28;20316;-69
2022/01/28 06:10:36;;;;;;;16.38;3.40;;;4.20;99.90;;;;;;2080271;28;20028;-69
2022/01/28 06:11:39;;;;;;;18.13;3.63;;;4.20;99.90;;;;;;2080192;28;20125;-70
2022/01/28 06:12:46;;;;;;;15.00;3.30;;;4.20;99.90;;;;;;2081002;28;20033;-69
2022/01/28 06:13:46;;;;;;;16.80;3.65;;;4.20;99.90;;;;;;2072090;28;20026;-70
2022/01/28 06:14:47;;;;;;;19.52;3.42;;;4.20;99.90;;;;;;2072196;28;20029;-69
2022/01/28 06:15:47;;;;;;;13.30;3.33;;;4.20;99.90;;;;;;2079665;28;20040;-70
2022/01/28 06:16:48;;;;;;;21.80;3.70;;;4.20;99.90;;;;;;2081010;28;20053;-70
2022/01/28 06:17:49;;;;;;;16.05;3.47;;;4.20;99.90;;;;;;2080928;28;20393;-70
2022/01/28 06:18:49;;;;;;;19.00;3.40;;;4.20;99.90;;;;;;2080975;28;20037;-69
2022/01/28 06:19:50;;;;;;;16.95;3.38;;;4.20;99.90;;;;;;2080853;28;20045;-70
2022/01/28 06:20:51;;;;;;;13.43;3.20;;;4.20;99.90;;;;;;2080065;28;20460;-70
2022/01/28 06:21:51;;;;;;;14.80;3.10;;;4.20;99.90;;;;;;2079890;28;20105;-70
2022/01/28 06:22:52;;;;;;;15.23;3.13;;;4.20;99.90;;;;;;2080840;28;20029;-70
2022/01/28 06:23:52;;;;;;;17.58;3.45;;;4.20;99.90;;;;;;2079821;28;20025;-70
2022/01/28 06:24:53;;;;;;;16.25;3.35;;;4.20;99.90;;;;;;2080414;28;20819;-71
2022/01/28 06:25:54;;;;;;;20.42;3.80;;;4.20;99.90;;;;;;2079860;28;20056;-70
2022/01/28 06:26:55;;;;;;;20.73;4.25;;;4.20;99.90;;;;;;2080192;28;20479;-70
2022/01/28 06:27:55;;;;;;;13.40;3.20;;;4.20;99.90;;;;;;2072009;28;20425;-70
2022/01/28 06:28:56;;;;;;;16.52;3.58;;;4.10;99.90;;;;;;2080441;28;20526;-70
2022/01/28 06:29:57;;;;;;;19.83;3.45;;;4.10;99.90;;;;;;2080997;28;20053;-70
2022/01/28 06:30:57;;;;;;;18.42;3.17;;;4.20;99.90;;;;;;2081126;28;20033;-70
2022/01/28 06:31:58;;;;;;;16.70;3.45;;;4.20;99.90;;;;;;2079913;28;20053;-71
2022/01/28 06:32:59;;;;;;;16.50;3.50;;;4.10;99.90;;;;;;2080462;28;20604;-70
2022/01/28 06:33:59;;;;;;;19.25;3.50;;;4.10;99.90;;;;;;2080321;28;20042;-70
2022/01/28 06:35:02;;;;;;;16.17;3.67;;;4.10;99.90;;;;;;2080268;28;20029;-70
2022/01/28 06:36:03;;;;;;;21.10;3.75;;;4.10;99.90;;;;;;2080687;28;20573;-70
2022/01/28 06:37:05;;;;;;;22.02;3.67;;;4.10;99.90;;;;;;2080677;28;20030;-70
2022/01/28 06:38:06;;;;;;;20.02;3.78;;;4.20;99.90;;;;;;2072313;28;20072;-70
2022/01/28 06:39:06;;;;;;;18.73;3.70;;;4.10;99.90;;;;;;2080411;28;20036;-70
2022/01/28 06:40:09;;;;;;;19.48;3.72;;;4.20;99.90;;;;;;2080755;28;20029;-70
2022/01/28 06:41:10;;;;;;;14.25;3.63;;;4.20;99.90;;;;;;2080054;28;20072;-68
2022/01/28 06:42:10;;;;;;;19.83;3.63;;;4.20;99.90;;;;;;2080251;28;20026;-69
2022/01/28 06:43:14;;;;;;;14.35;3.35;;;4.20;99.90;;;;;;2080747;28;20040;-69